sensor_id;sensor_type;location;lat;lon;timestamp;temperature;humidity
10175;DHT22;18221;38.704;0.152;2023-02-08T00:05:33;7.90;99.90
10175;DHT22;18221;38.704;0.152;2023-02-08T00:08:01;7.90;99.90
10175;DHT22;18221;38.704;0.152;2023-02-08T00:10:29;7.90;99.90
10175;DHT22;18221;38.704;0.152;2023-02-08T00:12:58;7.90;99.90
10175;DHT22;18221;38.704;0.152;2023-02-08T00:15:26;7.90;99.90
10175;DHT22;18221;38.704;0.152;2023-02-08T00:17:55;7.90;99.90
10175;DHT22;18221;38.704;0.152;2023-02-08T00:20:23;7.90;99.90
10175;DHT22;18221;38.704;0.152;2023-02-08T00:22:53;7.90;99.90
10175;DHT22;18221;38.704;0.152;2023-02-08T00:25:21;7.90;99.90
10175;DHT22;18221;38.704;0.152;2023-02-08T00:27:49;7.90;99.90
10175;DHT22;18221;38.704;0.152;2023-02-08T00:30:18;7.90;99.90
10175;DHT22;18221;38.704;0.152;2023-02-08T00:32:46;7.90;99.90
10175;DHT22;18221;38.704;0.152;2023-02-08T00:35:15;7.90;99.90
10175;DHT22;18221;38.704;0.152;2023-02-08T00:37:43;7.90;99.90
10175;DHT22;18221;38.704;0.152;2023-02-08T00:40:13;7.90;99.90
10175;DHT22;18221;38.704;0.152;2023-02-08T00:42:41;7.90;99.90
10175;DHT22;18221;38.704;0.152;2023-02-08T00:45:09;7.90;99.90
10175;DHT22;18221;38.704;0.152;2023-02-08T00:47:38;7.80;99.90
10175;DHT22;18221;38.704;0.152;2023-02-08T00:50:08;7.80;99.90
10175;DHT22;18221;38.704;0.152;2023-02-08T00:52:37;7.80;99.90
10175;DHT22;18221;38.704;0.152;2023-02-08T00:55:06;7.80;99.90
10175;DHT22;18221;38.704;0.152;2023-02-08T00:57:36;7.80;99.90
10175;DHT22;18221;38.704;0.152;2023-02-08T01:00:06;7.80;99.90
10175;DHT22;18221;38.704;0.152;2023-02-08T01:02:37;7.90;99.90
10175;DHT22;18221;38.704;0.152;2023-02-08T01:05:06;7.90;99.90
10175;DHT22;18221;38.704;0.152;2023-02-08T01:07:35;7.90;99.90
10175;DHT22;18221;38.704;0.152;2023-02-08T01:10:04;7.90;99.90
10175;DHT22;18221;38.704;0.152;2023-02-08T01:12:35;7.90;99.90
10175;DHT22;18221;38.704;0.152;2023-02-08T01:15:04;7.90;99.90
10175;DHT22;18221;38.704;0.152;2023-02-08T01:17:33;7.90;99.90
10175;DHT22;18221;38.704;0.152;2023-02-08T01:20:01;7.90;99.90
10175;DHT22;18221;38.704;0.152;2023-02-08T01:22:30;7.90;99.90
10175;DHT22;18221;38.704;0.152;2023-02-08T01:24:58;8.00;99.90
10175;DHT22;18221;38.704;0.152;2023-02-08T01:27:26;7.90;99.90
10175;DHT22;18221;38.704;0.152;2023-02-08T01:29:56;7.90;99.90
10175;DHT22;18221;38.704;0.152;2023-02-08T01:32:25;7.90;99.90
10175;DHT22;18221;38.704;0.152;2023-02-08T01:34:53;7.90;99.90
10175;DHT22;18221;38.704;0.152;2023-02-08T01:37:24;7.90;99.90
10175;DHT22;18221;38.704;0.152;2023-02-08T01:39:53;7.90;99.90
10175;DHT22;18221;38.704;0.152;2023-02-08T01:42:21;7.90;99.90
10175;DHT22;18221;38.704;0.152;2023-02-08T01:48:04;7.80;99.90
10175;DHT22;18221;38.704;0.152;2023-02-08T01:50:42;7.80;99.90
10175;DHT22;18221;38.704;0.152;2023-02-08T01:53:17;7.80;99.90
10175;DHT22;18221;38.704;0.152;2023-02-08T01:55:51;7.80;99.90
10175;DHT22;18221;38.704;0.152;2023-02-08T01:58:29;7.70;99.90
10175;DHT22;18221;38.704;0.152;2023-02-08T02:01:03;7.70;99.90
10175;DHT22;18221;38.704;0.152;2023-02-08T02:03:33;7.70;99.90
10175;DHT22;18221;38.704;0.152;2023-02-08T02:06:06;7.60;99.90
10175;DHT22;18221;38.704;0.152;2023-02-08T02:08:37;7.60;99.90
10175;DHT22;18221;38.704;0.152;2023-02-08T02:11:12;7.60;99.90
10175;DHT22;18221;38.704;0.152;2023-02-08T02:13:41;7.60;99.90
10175;DHT22;18221;38.704;0.152;2023-02-08T02:16:11;7.50;99.90
10175;DHT22;18221;38.704;0.152;2023-02-08T02:18:40;7.50;99.90
10175;DHT22;18221;38.704;0.152;2023-02-08T02:21:30;7.50;99.90
10175;DHT22;18221;38.704;0.152;2023-02-08T02:28:02;7.50;99.90
10175;DHT22;18221;38.704;0.152;2023-02-08T02:34:12;7.50;99.90
10175;DHT22;18221;38.704;0.152;2023-02-08T02:36:55;7.40;99.90
10175;DHT22;18221;38.704;0.152;2023-02-08T02:39:36;7.40;99.90
10175;DHT22;18221;38.704;0.152;2023-02-08T02:42:17;7.40;99.90
10175;DHT22;18221;38.704;0.152;2023-02-08T02:45:16;7.40;99.90
10175;DHT22;18221;38.704;0.152;2023-02-08T02:47:58;7.40;99.90
10175;DHT22;18221;38.704;0.152;2023-02-08T02:50:35;7.40;99.90
10175;DHT22;18221;38.704;0.152;2023-02-08T02:53:10;7.40;99.90
10175;DHT22;18221;38.704;0.152;2023-02-08T02:55:47;7.40;99.90
10175;DHT22;18221;38.704;0.152;2023-02-08T02:58:22;7.40;99.90
10175;DHT22;18221;38.704;0.152;2023-02-08T03:00:53;7.40;99.90
10175;DHT22;18221;38.704;0.152;2023-02-08T03:03:25;7.40;99.90
10175;DHT22;18221;38.704;0.152;2023-02-08T03:06:01;7.40;99.90
10175;DHT22;18221;38.704;0.152;2023-02-08T03:11:41;7.40;99.90
10175;DHT22;18221;38.704;0.152;2023-02-08T03:14:27;7.40;99.90
10175;DHT22;18221;38.704;0.152;2023-02-08T03:17:22;7.30;99.90
10175;DHT22;18221;38.704;0.152;2023-02-08T03:20:07;7.30;99.90
10175;DHT22;18221;38.704;0.152;2023-02-08T03:22:44;7.30;99.90
10175;DHT22;18221;38.704;0.152;2023-02-08T03:25:22;7.30;99.90
10175;DHT22;18221;38.704;0.152;2023-02-08T03:28:02;7.30;99.90
10175;DHT22;18221;38.704;0.152;2023-02-08T03:30:43;7.30;99.90
10175;DHT22;18221;38.704;0.152;2023-02-08T03:33:20;7.30;99.90
10175;DHT22;18221;38.704;0.152;2023-02-08T03:35:55;7.30;99.90
10175;DHT22;18221;38.704;0.152;2023-02-08T03:38:28;7.30;99.90
10175;DHT22;18221;38.704;0.152;2023-02-08T03:41:04;7.30;99.90
10175;DHT22;18221;38.704;0.152;2023-02-08T03:43:39;7.30;99.90
10175;DHT22;18221;38.704;0.152;2023-02-08T03:46:13;7.30;99.90
10175;DHT22;18221;38.704;0.152;2023-02-08T03:48:53;7.30;99.90
10175;DHT22;18221;38.704;0.152;2023-02-08T03:51:27;7.30;99.90
10175;DHT22;18221;38.704;0.152;2023-02-08T03:54:01;7.30;99.90
10175;DHT22;18221;38.704;0.152;2023-02-08T03:56:37;7.30;99.90
10175;DHT22;18221;38.704;0.152;2023-02-08T03:59:14;7.30;99.90
10175;DHT22;18221;38.704;0.152;2023-02-08T04:01:49;7.30;99.90
10175;DHT22;18221;38.704;0.152;2023-02-08T04:04:25;7.30;99.90
10175;DHT22;18221;38.704;0.152;2023-02-08T04:06:59;7.30;99.90
10175;DHT22;18221;38.704;0.152;2023-02-08T04:09:27;7.30;99.90
10175;DHT22;18221;38.704;0.152;2023-02-08T04:11:56;7.30;99.90
10175;DHT22;18221;38.704;0.152;2023-02-08T04:14:25;7.30;99.90
10175;DHT22;18221;38.704;0.152;2023-02-08T04:16:54;7.30;99.90
10175;DHT22;18221;38.704;0.152;2023-02-08T04:19:23;7.40;99.90
10175;DHT22;18221;38.704;0.152;2023-02-08T04:21:51;7.40;99.90
10175;DHT22;18221;38.704;0.152;2023-02-08T04:24:21;7.40;99.90
10175;DHT22;18221;38.704;0.152;2023-02-08T04:26:53;7.40;99.90
10175;DHT22;18221;38.704;0.152;2023-02-08T04:29:21;7.40;99.90
10175;DHT22;18221;38.704;0.152;2023-02-08T04:31:52;7.40;99.90
10175;DHT22;18221;38.704;0.152;2023-02-08T04:34:21;7.40;99.90
10175;DHT22;18221;38.704;0.152;2023-02-08T04:36:50;7.40;99.90
10175;DHT22;18221;38.704;0.152;2023-02-08T04:39:18;7.50;99.90
10175;DHT22;18221;38.704;0.152;2023-02-08T04:41:48;7.40;99.90
10175;DHT22;18221;38.704;0.152;2023-02-08T04:44:17;7.40;99.90
10175;DHT22;18221;38.704;0.152;2023-02-08T04:46:45;7.40;99.90
10175;DHT22;18221;38.704;0.152;2023-02-08T04:49:14;7.40;99.90
10175;DHT22;18221;38.704;0.152;2023-02-08T04:51:42;7.40;99.90
10175;DHT22;18221;38.704;0.152;2023-02-08T04:54:10;7.40;99.90
10175;DHT22;18221;38.704;0.152;2023-02-08T04:56:38;7.40;99.90
10175;DHT22;18221;38.704;0.152;2023-02-08T04:59:08;7.40;99.90
10175;DHT22;18221;38.704;0.152;2023-02-08T05:01:36;7.40;99.90
10175;DHT22;18221;38.704;0.152;2023-02-08T05:04:04;7.40;99.90
10175;DHT22;18221;38.704;0.152;2023-02-08T05:06:33;7.50;99.90
10175;DHT22;18221;38.704;0.152;2023-02-08T05:09:01;7.50;99.90
10175;DHT22;18221;38.704;0.152;2023-02-08T05:11:30;7.50;99.90
10175;DHT22;18221;38.704;0.152;2023-02-08T05:14:00;7.50;99.90
10175;DHT22;18221;38.704;0.152;2023-02-08T05:16:30;7.50;99.90
10175;DHT22;18221;38.704;0.152;2023-02-08T05:18:58;7.50;99.90
10175;DHT22;18221;38.704;0.152;2023-02-08T05:21:27;7.50;99.90
10175;DHT22;18221;38.704;0.152;2023-02-08T05:23:55;7.50;99.90
10175;DHT22;18221;38.704;0.152;2023-02-08T05:26:23;7.60;99.90
10175;DHT22;18221;38.704;0.152;2023-02-08T05:28:51;7.60;99.90
10175;DHT22;18221;38.704;0.152;2023-02-08T05:31:21;7.50;99.90
10175;DHT22;18221;38.704;0.152;2023-02-08T05:33:52;7.50;99.90
10175;DHT22;18221;38.704;0.152;2023-02-08T05:36:21;7.50;99.90
10175;DHT22;18221;38.704;0.152;2023-02-08T05:38:50;7.50;99.90
10175;DHT22;18221;38.704;0.152;2023-02-08T05:41:18;7.50;99.90
10175;DHT22;18221;38.704;0.152;2023-02-08T05:43:46;7.60;99.90
10175;DHT22;18221;38.704;0.152;2023-02-08T05:46:15;7.60;99.90
10175;DHT22;18221;38.704;0.152;2023-02-08T05:48:43;7.60;99.90
10175;DHT22;18221;38.704;0.152;2023-02-08T05:51:13;7.50;99.90
10175;DHT22;18221;38.704;0.152;2023-02-08T05:53:45;7.60;99.90
10175;DHT22;18221;38.704;0.152;2023-02-08T05:56:13;7.50;99.90
10175;DHT22;18221;38.704;0.152;2023-02-08T05:58:42;7.50;99.90
10175;DHT22;18221;38.704;0.152;2023-02-08T06:01:11;7.50;99.90
10175;DHT22;18221;38.704;0.152;2023-02-08T06:03:40;7.50;99.90
10175;DHT22;18221;38.704;0.152;2023-02-08T06:06:09;7.50;99.90
10175;DHT22;18221;38.704;0.152;2023-02-08T06:08:39;7.50;99.90
10175;DHT22;18221;38.704;0.152;2023-02-08T06:11:10;7.60;99.90
10175;DHT22;18221;38.704;0.152;2023-02-08T06:13:38;7.50;99.90
10175;DHT22;18221;38.704;0.152;2023-02-08T06:16:07;7.50;99.90
10175;DHT22;18221;38.704;0.152;2023-02-08T06:18:35;7.50;99.90
10175;DHT22;18221;38.704;0.152;2023-02-08T06:21:04;7.50;99.90
10175;DHT22;18221;38.704;0.152;2023-02-08T06:23:32;7.50;99.90
10175;DHT22;18221;38.704;0.152;2023-02-08T06:26:03;7.50;99.90
10175;DHT22;18221;38.704;0.152;2023-02-08T06:28:31;7.50;99.90
10175;DHT22;18221;38.704;0.152;2023-02-08T06:30:59;7.50;99.90
10175;DHT22;18221;38.704;0.152;2023-02-08T06:33:28;7.50;99.90
10175;DHT22;18221;38.704;0.152;2023-02-08T06:35:57;7.50;99.90
10175;DHT22;18221;38.704;0.152;2023-02-08T06:38:30;7.50;99.90
10175;DHT22;18221;38.704;0.152;2023-02-08T06:40:59;7.50;99.90
10175;DHT22;18221;38.704;0.152;2023-02-08T06:43:29;7.60;99.90
10175;DHT22;18221;38.704;0.152;2023-02-08T06:45:57;7.50;99.90
10175;DHT22;18221;38.704;0.152;2023-02-08T06:48:25;7.60;99.90
10175;DHT22;18221;38.704;0.152;2023-02-08T06:50:54;7.60;99.90
10175;DHT22;18221;38.704;0.152;2023-02-08T06:53:23;7.60;99.90
10175;DHT22;18221;38.704;0.152;2023-02-08T06:55:51;7.60;99.90
10175;DHT22;18221;38.704;0.152;2023-02-08T06:58:19;7.60;99.90
10175;DHT22;18221;38.704;0.152;2023-02-08T07:00:49;7.60;99.90
10175;DHT22;18221;38.704;0.152;2023-02-08T07:03:18;7.60;99.90
10175;DHT22;18221;38.704;0.152;2023-02-08T07:05:48;7.70;99.90
10175;DHT22;18221;38.704;0.152;2023-02-08T07:08:16;7.70;99.90
10175;DHT22;18221;38.704;0.152;2023-02-08T07:10:45;7.70;99.90
10175;DHT22;18221;38.704;0.152;2023-02-08T07:13:14;7.70;99.90
10175;DHT22;18221;38.704;0.152;2023-02-08T07:15:43;7.70;99.90
10175;DHT22;18221;38.704;0.152;2023-02-08T07:18:12;7.70;99.90
10175;DHT22;18221;38.704;0.152;2023-02-08T07:20:41;7.70;99.90
10175;DHT22;18221;38.704;0.152;2023-02-08T07:23:10;7.70;99.90
10175;DHT22;18221;38.704;0.152;2023-02-08T07:25:38;7.80;99.90
10175;DHT22;18221;38.704;0.152;2023-02-08T07:28:07;7.80;99.90
10175;DHT22;18221;38.704;0.152;2023-02-08T07:30:36;7.80;99.90
10175;DHT22;18221;38.704;0.152;2023-02-08T07:33:04;7.80;99.90
10175;DHT22;18221;38.704;0.152;2023-02-08T07:35:35;7.90;99.90
10175;DHT22;18221;38.704;0.152;2023-02-08T07:38:03;7.90;99.90
10175;DHT22;18221;38.704;0.152;2023-02-08T07:40:32;8.00;99.90
10175;DHT22;18221;38.704;0.152;2023-02-08T07:43:00;8.00;99.90
10175;DHT22;18221;38.704;0.152;2023-02-08T07:45:29;8.10;99.90
10175;DHT22;18221;38.704;0.152;2023-02-08T07:47:58;8.10;99.90
10175;DHT22;18221;38.704;0.152;2023-02-08T07:50:27;8.70;99.90
10175;DHT22;18221;38.704;0.152;2023-02-08T07:52:57;8.20;99.90
10175;DHT22;18221;38.704;0.152;2023-02-08T07:55:25;8.20;99.90
10175;DHT22;18221;38.704;0.152;2023-02-08T07:57:55;8.20;99.90
10175;DHT22;18221;38.704;0.152;2023-02-08T08:00:30;8.30;99.90
10175;DHT22;18221;38.704;0.152;2023-02-08T08:02:59;8.20;99.90
10175;DHT22;18221;38.704;0.152;2023-02-08T08:05:27;8.30;99.90
10175;DHT22;18221;38.704;0.152;2023-02-08T08:07:57;8.30;99.90
10175;DHT22;18221;38.704;0.152;2023-02-08T08:10:26;8.30;99.90
10175;DHT22;18221;38.704;0.152;2023-02-08T08:12:54;8.40;99.90
10175;DHT22;18221;38.704;0.152;2023-02-08T08:15:22;8.30;99.90
10175;DHT22;18221;38.704;0.152;2023-02-08T08:17:52;8.40;99.90
10175;DHT22;18221;38.704;0.152;2023-02-08T08:20:21;8.50;99.90
10175;DHT22;18221;38.704;0.152;2023-02-08T08:22:50;8.60;99.90
10175;DHT22;18221;38.704;0.152;2023-02-08T08:25:20;8.70;99.90
10175;DHT22;18221;38.704;0.152;2023-02-08T08:27:48;8.80;99.90
10175;DHT22;18221;38.704;0.152;2023-02-08T08:30:17;8.80;99.90
10175;DHT22;18221;38.704;0.152;2023-02-08T08:32:46;8.90;99.90
10175;DHT22;18221;38.704;0.152;2023-02-08T08:35:15;9.00;99.90
10175;DHT22;18221;38.704;0.152;2023-02-08T08:37:43;8.90;99.90
10175;DHT22;18221;38.704;0.152;2023-02-08T08:40:12;8.90;99.90
10175;DHT22;18221;38.704;0.152;2023-02-08T08:42:42;8.80;99.90
10175;DHT22;18221;38.704;0.152;2023-02-08T08:45:10;8.80;99.90
10175;DHT22;18221;38.704;0.152;2023-02-08T08:47:39;8.80;99.90
10175;DHT22;18221;38.704;0.152;2023-02-08T08:50:07;8.90;99.90
10175;DHT22;18221;38.704;0.152;2023-02-08T08:52:36;8.90;99.90
10175;DHT22;18221;38.704;0.152;2023-02-08T08:55:05;9.00;99.90
10175;DHT22;18221;38.704;0.152;2023-02-08T08:57:34;9.00;99.90
10175;DHT22;18221;38.704;0.152;2023-02-08T09:00:05;8.90;99.90
10175;DHT22;18221;38.704;0.152;2023-02-08T09:02:35;8.90;99.90
10175;DHT22;18221;38.704;0.152;2023-02-08T09:05:04;8.90;99.90
10175;DHT22;18221;38.704;0.152;2023-02-08T09:07:33;8.90;99.90
10175;DHT22;18221;38.704;0.152;2023-02-08T09:10:01;9.00;99.90
10175;DHT22;18221;38.704;0.152;2023-02-08T09:12:30;9.10;99.90
10175;DHT22;18221;38.704;0.152;2023-02-08T09:14:58;9.20;99.90
10175;DHT22;18221;38.704;0.152;2023-02-08T09:17:28;9.40;99.90
10175;DHT22;18221;38.704;0.152;2023-02-08T09:19:57;9.60;99.90
10175;DHT22;18221;38.704;0.152;2023-02-08T09:22:25;9.60;99.90
10175;DHT22;18221;38.704;0.152;2023-02-08T09:24:53;9.60;99.90
10175;DHT22;18221;38.704;0.152;2023-02-08T09:27:22;9.40;99.90
10175;DHT22;18221;38.704;0.152;2023-02-08T09:29:50;9.30;99.90
10175;DHT22;18221;38.704;0.152;2023-02-08T09:32:18;9.30;99.90
10175;DHT22;18221;38.704;0.152;2023-02-08T09:34:49;9.30;99.90
10175;DHT22;18221;38.704;0.152;2023-02-08T09:37:17;9.30;99.90
10175;DHT22;18221;38.704;0.152;2023-02-08T09:39:45;9.30;99.90
10175;DHT22;18221;38.704;0.152;2023-02-08T09:42:29;9.30;99.90
10175;DHT22;18221;38.704;0.152;2023-02-08T09:45:23;9.30;99.90
10175;DHT22;18221;38.704;0.152;2023-02-08T09:48:03;9.20;99.90
10175;DHT22;18221;38.704;0.152;2023-02-08T09:50:45;11.10;99.90
10175;DHT22;18221;38.704;0.152;2023-02-08T09:53:18;9.20;99.90
10175;DHT22;18221;38.704;0.152;2023-02-08T09:55:54;9.20;99.90
10175;DHT22;18221;38.704;0.152;2023-02-08T09:58:27;9.30;99.90
10175;DHT22;18221;38.704;0.152;2023-02-08T10:01:00;9.50;99.90
10175;DHT22;18221;38.704;0.152;2023-02-08T10:03:35;9.60;99.90
10175;DHT22;18221;38.704;0.152;2023-02-08T10:06:10;9.60;99.90
10175;DHT22;18221;38.704;0.152;2023-02-08T10:08:41;9.40;99.90
10175;DHT22;18221;38.704;0.152;2023-02-08T10:11:30;9.30;99.90
10175;DHT22;18221;38.704;0.152;2023-02-08T10:14:29;9.30;99.90
10175;DHT22;18221;38.704;0.152;2023-02-08T10:20:31;9.30;99.90
10175;DHT22;18221;38.704;0.152;2023-02-08T10:23:21;9.40;99.90
10175;DHT22;18221;38.704;0.152;2023-02-08T10:26:12;9.40;99.90
10175;DHT22;18221;38.704;0.152;2023-02-08T10:29:14;9.50;99.90
10175;DHT22;18221;38.704;0.152;2023-02-08T10:32:26;9.50;99.90
10175;DHT22;18221;38.704;0.152;2023-02-08T10:35:08;9.60;99.90
10175;DHT22;18221;38.704;0.152;2023-02-08T10:37:41;9.60;99.90
10175;DHT22;18221;38.704;0.152;2023-02-08T10:43:25;9.70;99.90
10175;DHT22;18221;38.704;0.152;2023-02-08T10:46:07;9.70;99.90
10175;DHT22;18221;38.704;0.152;2023-02-08T10:48:51;9.70;99.90
10175;DHT22;18221;38.704;0.152;2023-02-08T10:51:33;9.60;99.90
10175;DHT22;18221;38.704;0.152;2023-02-08T10:54:02;9.60;99.90
10175;DHT22;18221;38.704;0.152;2023-02-08T10:56:39;9.70;99.90
10175;DHT22;18221;38.704;0.152;2023-02-08T10:59:19;9.60;99.90
10175;DHT22;18221;38.704;0.152;2023-02-08T11:01:50;9.70;99.90
10175;DHT22;18221;38.704;0.152;2023-02-08T11:04:20;9.70;99.90
10175;DHT22;18221;38.704;0.152;2023-02-08T11:06:50;9.70;99.90
10175;DHT22;18221;38.704;0.152;2023-02-08T11:09:25;9.80;99.90
10175;DHT22;18221;38.704;0.152;2023-02-08T11:11:57;9.80;99.90
10175;DHT22;18221;38.704;0.152;2023-02-08T11:14:31;9.90;99.90
10175;DHT22;18221;38.704;0.152;2023-02-08T11:17:23;9.90;99.90
10175;DHT22;18221;38.704;0.152;2023-02-08T11:19:54;9.90;99.90
10175;DHT22;18221;38.704;0.152;2023-02-08T11:22:26;9.90;99.90
10175;DHT22;18221;38.704;0.152;2023-02-08T11:24:59;9.90;99.90
10175;DHT22;18221;38.704;0.152;2023-02-08T11:27:33;9.90;99.90
10175;DHT22;18221;38.704;0.152;2023-02-08T11:30:19;10.00;99.90
10175;DHT22;18221;38.704;0.152;2023-02-08T11:33:14;10.10;99.90
10175;DHT22;18221;38.704;0.152;2023-02-08T11:36:06;10.10;99.90
10175;DHT22;18221;38.704;0.152;2023-02-08T11:38:41;10.10;99.90
10175;DHT22;18221;38.704;0.152;2023-02-08T11:41:15;10.10;99.90
10175;DHT22;18221;38.704;0.152;2023-02-08T11:43:57;10.00;99.90
10175;DHT22;18221;38.704;0.152;2023-02-08T11:46:32;10.10;99.90
10175;DHT22;18221;38.704;0.152;2023-02-08T11:49:05;10.10;99.90
10175;DHT22;18221;38.704;0.152;2023-02-08T11:51:35;10.10;99.90
10175;DHT22;18221;38.704;0.152;2023-02-08T11:54:09;10.10;99.90
10175;DHT22;18221;38.704;0.152;2023-02-08T11:57:03;10.00;99.90
10175;DHT22;18221;38.704;0.152;2023-02-08T11:59:39;10.10;99.90
10175;DHT22;18221;38.704;0.152;2023-02-08T12:02:35;10.20;99.90
10175;DHT22;18221;38.704;0.152;2023-02-08T12:05:09;10.10;99.90
10175;DHT22;18221;38.704;0.152;2023-02-08T12:07:52;10.10;99.90
10175;DHT22;18221;38.704;0.152;2023-02-08T12:10:54;10.10;99.90
10175;DHT22;18221;38.704;0.152;2023-02-08T12:17:15;10.40;99.90
10175;DHT22;18221;38.704;0.152;2023-02-08T12:20:23;10.30;99.90
10175;DHT22;18221;38.704;0.152;2023-02-08T12:23:19;10.30;99.90
10175;DHT22;18221;38.704;0.152;2023-02-08T12:26:07;10.30;99.90
10175;DHT22;18221;38.704;0.152;2023-02-08T12:29:02;10.30;99.90
10175;DHT22;18221;38.704;0.152;2023-02-08T12:31:53;10.40;99.90
10175;DHT22;18221;38.704;0.152;2023-02-08T12:34:45;10.50;99.90
10175;DHT22;18221;38.704;0.152;2023-02-08T12:37:29;10.40;99.90
10175;DHT22;18221;38.704;0.152;2023-02-08T12:40:33;10.30;99.90
10175;DHT22;18221;38.704;0.152;2023-02-08T12:43:29;10.10;99.90
10175;DHT22;18221;38.704;0.152;2023-02-08T12:46:21;10.10;99.90
10175;DHT22;18221;38.704;0.152;2023-02-08T12:49:47;10.10;99.90
10175;DHT22;18221;38.704;0.152;2023-02-08T12:52:30;10.10;99.90
10175;DHT22;18221;38.704;0.152;2023-02-08T12:55:11;10.10;99.90
10175;DHT22;18221;38.704;0.152;2023-02-08T12:57:48;10.00;99.90
10175;DHT22;18221;38.704;0.152;2023-02-08T13:00:21;10.00;99.90
10175;DHT22;18221;38.704;0.152;2023-02-08T13:02:58;9.90;99.90
10175;DHT22;18221;38.704;0.152;2023-02-08T13:05:38;9.80;99.90
10175;DHT22;18221;38.704;0.152;2023-02-08T13:08:18;9.80;99.90
10175;DHT22;18221;38.704;0.152;2023-02-08T13:10:55;9.90;99.90
10175;DHT22;18221;38.704;0.152;2023-02-08T13:13:30;9.80;99.90
10175;DHT22;18221;38.704;0.152;2023-02-08T13:16:06;9.90;99.90
10175;DHT22;18221;38.704;0.152;2023-02-08T13:18:45;9.80;99.90
10175;DHT22;18221;38.704;0.152;2023-02-08T13:21:21;9.90;99.90
10175;DHT22;18221;38.704;0.152;2023-02-08T13:23:53;9.90;99.90
10175;DHT22;18221;38.704;0.152;2023-02-08T13:26:23;9.90;99.90
10175;DHT22;18221;38.704;0.152;2023-02-08T13:28:56;9.90;99.90
10175;DHT22;18221;38.704;0.152;2023-02-08T13:31:29;9.90;99.90
10175;DHT22;18221;38.704;0.152;2023-02-08T13:34:03;9.90;99.90
10175;DHT22;18221;38.704;0.152;2023-02-08T13:36:48;10.00;99.90
10175;DHT22;18221;38.704;0.152;2023-02-08T13:39:30;10.00;99.90
10175;DHT22;18221;38.704;0.152;2023-02-08T13:42:03;9.90;99.90
10175;DHT22;18221;38.704;0.152;2023-02-08T13:44:36;9.90;99.90
10175;DHT22;18221;38.704;0.152;2023-02-08T13:47:07;9.90;99.90
10175;DHT22;18221;38.704;0.152;2023-02-08T13:49:54;10.00;99.90
10175;DHT22;18221;38.704;0.152;2023-02-08T13:52:48;9.90;99.90
10175;DHT22;18221;38.704;0.152;2023-02-08T13:55:41;9.90;99.90
10175;DHT22;18221;38.704;0.152;2023-02-08T14:01:33;9.90;99.90
10175;DHT22;18221;38.704;0.152;2023-02-08T14:04:32;9.80;99.90
10175;DHT22;18221;38.704;0.152;2023-02-08T14:07:13;9.80;99.90
10175;DHT22;18221;38.704;0.152;2023-02-08T14:10:04;9.80;99.90
10175;DHT22;18221;38.704;0.152;2023-02-08T14:12:46;9.80;99.90
10175;DHT22;18221;38.704;0.152;2023-02-08T14:15:31;9.80;99.90
10175;DHT22;18221;38.704;0.152;2023-02-08T14:18:02;9.80;99.90
10175;DHT22;18221;38.704;0.152;2023-02-08T14:20:41;9.80;99.90
10175;DHT22;18221;38.704;0.152;2023-02-08T14:23:34;9.80;99.90
10175;DHT22;18221;38.704;0.152;2023-02-08T14:26:14;9.80;99.90
10175;DHT22;18221;38.704;0.152;2023-02-08T14:28:53;9.90;99.90
10175;DHT22;18221;38.704;0.152;2023-02-08T14:31:35;9.90;99.90
10175;DHT22;18221;38.704;0.152;2023-02-08T14:34:06;9.90;99.90
10175;DHT22;18221;38.704;0.152;2023-02-08T14:36:59;9.80;99.90
10175;DHT22;18221;38.704;0.152;2023-02-08T14:39:31;9.80;99.90
10175;DHT22;18221;38.704;0.152;2023-02-08T14:42:04;9.80;99.90
10175;DHT22;18221;38.704;0.152;2023-02-08T14:45:01;9.80;99.90
10175;DHT22;18221;38.704;0.152;2023-02-08T14:48:15;9.70;99.90
10175;DHT22;18221;38.704;0.152;2023-02-08T14:50:59;9.70;99.90
10175;DHT22;18221;38.704;0.152;2023-02-08T14:53:46;9.70;99.90
10175;DHT22;18221;38.704;0.152;2023-02-08T14:56:20;9.70;99.90
10175;DHT22;18221;38.704;0.152;2023-02-08T14:58:57;9.70;99.90
10175;DHT22;18221;38.704;0.152;2023-02-08T15:01:37;9.70;99.90
10175;DHT22;18221;38.704;0.152;2023-02-08T15:04:09;9.60;99.90
10175;DHT22;18221;38.704;0.152;2023-02-08T15:06:54;9.60;99.90
10175;DHT22;18221;38.704;0.152;2023-02-08T15:09:41;9.60;99.90
10175;DHT22;18221;38.704;0.152;2023-02-08T15:12:16;9.60;99.90
10175;DHT22;18221;38.704;0.152;2023-02-08T15:14:56;9.60;99.90
10175;DHT22;18221;38.704;0.152;2023-02-08T15:17:31;9.60;99.90
10175;DHT22;18221;38.704;0.152;2023-02-08T15:20:04;9.60;99.90
10175;DHT22;18221;38.704;0.152;2023-02-08T15:22:37;9.60;99.90
10175;DHT22;18221;38.704;0.152;2023-02-08T15:25:22;9.60;99.90
10175;DHT22;18221;38.704;0.152;2023-02-08T15:27:54;9.70;99.90
10175;DHT22;18221;38.704;0.152;2023-02-08T15:30:32;9.60;99.90
10175;DHT22;18221;38.704;0.152;2023-02-08T15:33:06;9.60;99.90
10175;DHT22;18221;38.704;0.152;2023-02-08T15:35:36;9.60;99.90
10175;DHT22;18221;38.704;0.152;2023-02-08T15:38:08;9.60;99.90
10175;DHT22;18221;38.704;0.152;2023-02-08T15:40:41;9.60;99.90
10175;DHT22;18221;38.704;0.152;2023-02-08T15:43:13;9.60;99.90
10175;DHT22;18221;38.704;0.152;2023-02-08T15:45:42;9.60;99.90
10175;DHT22;18221;38.704;0.152;2023-02-08T15:48:23;9.60;99.90
10175;DHT22;18221;38.704;0.152;2023-02-08T15:50:53;9.70;99.90
10175;DHT22;18221;38.704;0.152;2023-02-08T15:53:23;9.60;99.90
10175;DHT22;18221;38.704;0.152;2023-02-08T15:55:54;9.70;99.90
10175;DHT22;18221;38.704;0.152;2023-02-08T15:58:29;9.70;99.90
10175;DHT22;18221;38.704;0.152;2023-02-08T16:01:05;9.80;99.90
10175;DHT22;18221;38.704;0.152;2023-02-08T16:03:35;9.90;99.90
10175;DHT22;18221;38.704;0.152;2023-02-08T16:06:05;9.90;99.90
10175;DHT22;18221;38.704;0.152;2023-02-08T16:08:39;9.90;99.90
10175;DHT22;18221;38.704;0.152;2023-02-08T16:11:12;9.90;99.90
10175;DHT22;18221;38.704;0.152;2023-02-08T16:13:49;9.90;99.90
10175;DHT22;18221;38.704;0.152;2023-02-08T16:16:23;9.90;99.90
10175;DHT22;18221;38.704;0.152;2023-02-08T16:19:04;9.90;99.90
10175;DHT22;18221;38.704;0.152;2023-02-08T16:21:45;9.90;99.90
10175;DHT22;18221;38.704;0.152;2023-02-08T16:24:20;9.90;99.90
10175;DHT22;18221;38.704;0.152;2023-02-08T16:27:00;9.90;99.90
10175;DHT22;18221;38.704;0.152;2023-02-08T16:29:31;9.90;99.90
10175;DHT22;18221;38.704;0.152;2023-02-08T16:32:05;9.90;99.90
10175;DHT22;18221;38.704;0.152;2023-02-08T16:34:48;9.80;99.90
10175;DHT22;18221;38.704;0.152;2023-02-08T16:37:22;9.50;99.90
10175;DHT22;18221;38.704;0.152;2023-02-08T16:39:54;9.40;99.90
10175;DHT22;18221;38.704;0.152;2023-02-08T16:42:27;9.30;99.90
10175;DHT22;18221;38.704;0.152;2023-02-08T16:45:11;9.20;99.90
10175;DHT22;18221;38.704;0.152;2023-02-08T16:47:49;9.10;99.90
10175;DHT22;18221;38.704;0.152;2023-02-08T16:50:20;9.20;99.90
10175;DHT22;18221;38.704;0.152;2023-02-08T16:52:52;9.10;99.90
10175;DHT22;18221;38.704;0.152;2023-02-08T16:55:25;9.10;99.90
10175;DHT22;18221;38.704;0.152;2023-02-08T16:57:57;9.00;99.90
10175;DHT22;18221;38.704;0.152;2023-02-08T17:00:29;9.00;99.90
10175;DHT22;18221;38.704;0.152;2023-02-08T17:03:01;9.00;99.90